Time;durP1;ratioP1;P1;durP2;ratioP2;P2;SDS_P1;SDS_P2;PMS_P1;PMS_P2;Temp;Humidity;BMP_temperature;BMP_pressure;BME280_temperature;BME280_humidity;BME280_pressure;Samples;Min_cycle;Max_cycle;Signal;HPM_P1;HPM_P2
2024/03/01 00:02:13;;;;;;;93.40;47.90;;;;;;;6.44;100.00;99770.33;134889;1276;22427;-86
2024/03/01 00:05:14;;;;;;;90.00;50.20;;;;;;;6.47;100.00;99769.21;134870;1292;22446;-87
2024/03/01 00:08:15;;;;;;;;;;;;;;;6.51;100.00;99767.94;134897;1300;22445;-88
2024/03/01 00:11:15;;;;;;;94.60;51.10;;;;;;;6.50;100.00;99769.38;134866;1297;23422;-86
2024/03/01 00:14:16;;;;;;;91.90;50.60;;;;;;;6.49;100.00;99767.19;134875;1300;22490;-87
2024/03/01 00:17:16;;;;;;;100.40;50.20;;;;;;;6.49;100.00;99766.52;134933;1300;22472;-87
2024/03/01 00:20:21;;;;;;;96.60;49.50;;;;;;;6.50;100.00;99763.99;134899;1300;22389;-86
2024/03/01 00:23:22;;;;;;;96.70;52.50;;;;;;;6.49;100.00;99762.45;134909;1292;22247;-87
2024/03/01 00:26:23;;;;;;;95.10;52.00;;;;;;;6.49;100.00;99757.41;134878;1299;22125;-86
2024/03/01 00:29:23;;;;;;;94.90;49.20;;;;;;;6.48;100.00;99751.70;134860;1295;22411;-87
2024/03/01 00:32:23;;;;;;;103.30;54.70;;;;;;;6.46;100.00;99749.24;134867;1295;23484;-86
2024/03/01 00:35:24;;;;;;;90.70;47.30;;;;;;;6.48;100.00;99753.45;134921;1292;23278;-87
2024/03/01 00:38:25;;;;;;;101.50;51.80;;;;;;;6.49;100.00;99752.42;134909;1299;22353;-86
2024/03/01 00:41:25;;;;;;;89.80;46.90;;;;;;;6.50;100.00;99751.29;134875;1296;22391;-86
2024/03/01 00:44:26;;;;;;;95.50;52.00;;;;;;;6.49;100.00;99749.10;134749;1292;22495;-87
2024/03/01 00:47:26;;;;;;;89.60;48.20;;;;;;;6.51;100.00;99746.34;134877;1295;22428;-87
2024/03/01 00:50:27;;;;;;;97.20;51.90;;;;;;;6.49;100.00;99745.58;134888;1300;22437;-87
2024/03/01 00:53:27;;;;;;;97.30;51.20;;;;;;;6.49;100.00;99738.59;134901;1300;22215;-87
2024/03/01 00:56:28;;;;;;;99.10;51.60;;;;;;;6.50;100.00;99735.31;134874;1300;22382;-88
2024/03/01 00:59:29;;;;;;;87.80;50.10;;;;;;;6.51;100.00;99731.34;134889;1300;22464;-87
2024/03/01 01:02:29;;;;;;;98.40;52.10;;;;;;;6.52;100.00;99729.14;134877;1292;23129;-87
2024/03/01 01:05:31;;;;;;;96.70;51.40;;;;;;;6.54;100.00;99728.06;134866;1295;22449;-88
2024/03/01 01:08:31;;;;;;;89.40;48.40;;;;;;;6.54;100.00;99724.91;134869;1298;22384;-87
2024/03/01 01:11:32;;;;;;;104.10;53.60;;;;;;;6.54;100.00;99720.00;134919;1292;22299;-87
2024/03/01 01:14:33;;;;;;;97.20;51.60;;;;;;;6.56;100.00;99715.44;134930;1292;22326;-87
2024/03/01 01:17:33;;;;;;;91.60;50.20;;;;;;;6.57;100.00;99711.70;134841;1300;23142;-87
2024/03/01 01:20:35;;;;;;;100.30;53.30;;;;;;;6.54;100.00;99707.90;134623;1293;22427;-88
2024/03/01 01:23:35;;;;;;;97.90;52.10;;;;;;;6.51;100.00;99704.45;134748;1300;22385;-87
2024/03/01 01:26:36;;;;;;;85.60;47.90;;;;;;;6.47;100.00;99701.90;134672;1294;22427;-87
2024/03/01 01:29:36;;;;;;;96.00;50.70;;;;;;;6.44;100.00;99699.70;134715;1294;22205;-87
2024/03/01 01:32:37;;;;;;;86.10;46.40;;;;;;;6.43;100.00;99694.36;134695;1300;22371;-87
2024/03/01 01:35:38;;;;;;;92.70;49.20;;;;;;;6.41;100.00;99690.19;134712;1301;22493;-88
2024/03/01 01:38:41;;;;;;;;;;;;;;;6.39;100.00;99689.73;134720;1295;22462;-87
2024/03/01 01:41:41;;;;;;;94.40;52.00;;;;;;;6.36;100.00;99684.20;134651;1301;23035;-88
2024/03/01 01:44:42;;;;;;;96.30;50.10;;;;;;;6.35;100.00;99680.41;134715;1301;22511;-87
2024/03/01 01:47:43;;;;;;;97.90;52.40;;;;;;;6.35;100.00;99676.23;134716;1301;22394;-88
2024/03/01 01:50:44;;;;;;;93.60;50.20;;;;;;;6.35;100.00;99674.31;134691;1297;22443;-87
2024/03/01 01:53:45;;;;;;;101.20;50.50;;;;;;;6.35;100.00;99666.02;134697;1294;23174;-87
2024/03/01 01:56:46;;;;;;;95.70;49.50;;;;;;;6.34;100.00;99657.48;134698;1301;22400;-87
2024/03/01 01:59:50;;;;;;;91.50;50.10;;;;;;;6.34;100.00;99654.41;134727;1301;22382;-88
2024/03/01 02:02:52;;;;;;;91.20;49.30;;;;;;;6.33;100.00;99653.91;134674;1301;22357;-87
2024/03/01 02:05:53;;;;;;;;;;;;;;;6.32;100.00;99653.27;134728;1301;22506;-87
2024/03/01 02:08:54;;;;;;;91.80;48.80;;;;;;;6.29;100.00;99646.50;134709;1294;22379;-87
2024/03/01 02:11:54;;;;;;;89.80;50.00;;;;;;;6.25;100.00;99644.13;134729;1301;22944;-87
2024/03/01 02:14:55;;;;;;;;;;;;;;;6.21;100.00;99636.73;134765;1301;22450;-87
2024/03/01 02:17:57;;;;;;;91.40;47.00;;;;;;;6.21;100.00;99632.98;134737;1301;23169;-87
2024/03/01 02:21:08;;;;;;;94.60;51.40;;;;;;;6.21;100.00;99627.63;134717;1300;22358;-87
2024/03/01 02:24:09;;;;;;;100.80;53.00;;;;;;;6.25;100.00;99628.64;134596;1288;22522;-87
2024/03/01 02:27:17;;;;;;;99.30;52.40;;;;;;;6.33;100.00;99627.40;134587;1301;22251;-86
2024/03/01 02:30:17;;;;;;;97.70;52.20;;;;;;;6.40;100.00;99623.55;134608;1294;22397;-87
2024/03/01 02:33:24;;;;;;;97.50;50.70;;;;;;;6.49;100.00;99616.29;134573;1294;22379;-88
2024/03/01 02:36:24;;;;;;;100.50;53.20;;;;;;;6.55;100.00;99612.95;134546;1302;23162;-88
2024/03/01 02:39:25;;;;;;;92.90;51.00;;;;;;;6.58;100.00;99608.39;134553;1294;22321;-88
2024/03/01 02:42:26;;;;;;;89.50;48.50;;;;;;;6.60;100.00;99601.64;134636;1301;23367;-87
2024/03/01 02:45:26;;;;;;;88.80;51.80;;;;;;;6.64;100.00;99601.83;134523;1295;23211;-89
2024/03/01 02:48:27;;;;;;;90.90;48.50;;;;;;;6.67;100.00;99598.84;134521;1301;22445;-88
2024/03/01 02:51:28;;;;;;;98.90;52.30;;;;;;;6.70;100.00;99593.25;134549;1295;23112;-87
2024/03/01 02:54:28;;;;;;;96.70;49.80;;;;;;;6.73;100.00;99591.92;134583;1300;23037;-89
2024/03/01 02:57:29;;;;;;;95.90;49.70;;;;;;;6.74;100.00;99587.93;134567;1294;23252;-90
2024/03/01 03:00:32;;;;;;;100.90;53.10;;;;;;;6.74;100.00;99580.02;134638;1294;22410;-87
2024/03/01 03:03:33;;;;;;;86.90;47.00;;;;;;;6.72;100.00;99580.08;134610;1294;22365;-86
2024/03/01 03:06:38;;;;;;;87.10;50.70;;;;;;;6.67;100.00;99578.27;134559;1299;22553;-88
2024/03/01 03:09:45;;;;;;;84.70;47.00;;;;;;;6.64;100.00;99579.14;134607;1301;22371;-88
2024/03/01 03:12:48;;;;;;;;;;;;;;;6.59;100.00;99577.65;134564;1302;22463;-88
2024/03/01 03:15:49;;;;;;;95.90;50.80;;;;;;;6.54;100.00;99576.77;134597;1301;22358;-89
2024/03/01 03:18:49;;;;;;;101.50;50.30;;;;;;;6.53;100.00;99578.30;134573;1294;22350;-89
2024/03/01 03:21:50;;;;;;;78.20;43.50;;;;;;;6.54;100.00;99581.70;134673;1293;23042;-84
2024/03/01 03:24:50;;;;;;;93.80;50.10;;;;;;;6.56;100.00;99577.33;134907;1294;22429;-87
2024/03/01 03:27:50;;;;;;;92.90;47.40;;;;;;;6.55;100.00;99577.39;134893;1300;22286;-87
2024/03/01 03:30:51;;;;;;;92.10;49.50;;;;;;;6.54;100.00;99577.16;134893;1300;23670;-82
2024/03/01 03:33:53;;;;;;;88.30;48.00;;;;;;;6.49;100.00;99575.67;134872;1300;22360;-81
2024/03/01 03:36:54;;;;;;;87.30;46.40;;;;;;;6.46;100.00;99571.77;134882;1300;22555;-85
2024/03/01 03:39:54;;;;;;;90.90;49.30;;;;;;;6.44;100.00;99572.02;134909;1293;22214;-86
2024/03/01 03:42:55;;;;;;;89.50;49.60;;;;;;;6.41;100.00;99573.14;134876;1300;22345;-85
2024/03/01 03:45:55;;;;;;;88.10;48.10;;;;;;;6.41;100.00;99572.50;134891;1292;22231;-85
2024/03/01 03:48:56;;;;;;;94.70;50.00;;;;;;;6.42;100.00;99567.61;134864;1295;22896;-86
2024/03/01 03:51:56;;;;;;;83.30;47.10;;;;;;;6.43;100.00;99569.23;134897;1293;22274;-85
2024/03/01 03:54:57;;;;;;;90.70;46.30;;;;;;;6.44;100.00;99567.92;134710;1300;22443;-85
2024/03/01 03:57:57;;;;;;;84.90;47.10;;;;;;;6.47;100.00;99569.40;134899;1294;25139;-85
2024/03/01 04:00:58;;;;;;;84.20;44.90;;;;;;;6.47;100.00;99567.44;134883;1294;22183;-84
2024/03/01 04:03:58;;;;;;;89.20;46.60;;;;;;;6.46;100.00;99563.36;134882;1293;23662;-83
2024/03/01 04:07:03;;;;;;;86.60;46.00;;;;;;;6.45;100.00;99561.33;134913;1300;22483;-84
2024/03/01 04:10:09;;;;;;;85.00;47.30;;;;;;;6.47;100.00;99568.90;134895;1292;22811;-84
2024/03/01 04:13:10;;;;;;;86.50;48.40;;;;;;;6.49;100.00;99566.71;134612;1289;23102;-85
2024/03/01 04:16:10;;;;;;;75.80;42.90;;;;;;;6.52;100.00;99563.77;134925;1300;22284;-84
2024/03/01 04:19:16;;;;;;;85.00;46.10;;;;;;;6.46;100.00;99558.61;134898;1292;23628;-84
2024/03/01 04:22:19;;;;;;;90.20;47.20;;;;;;;6.42;100.00;99554.80;134854;1300;22397;-84
2024/03/01 04:25:22;;;;;;;87.60;46.70;;;;;;;6.40;100.00;99562.59;134699;1301;22259;-84
2024/03/01 04:28:26;;;;;;;87.30;47.20;;;;;;;6.39;100.00;99568.67;134716;1294;22367;-85
2024/03/01 04:31:26;;;;;;;84.10;47.20;;;;;;;6.39;100.00;99569.89;134730;1301;22419;-86
2024/03/01 04:34:27;;;;;;;83.50;46.90;;;;;;;6.38;100.00;99565.08;134718;1294;22389;-84
2024/03/01 04:37:28;;;;;;;86.50;46.50;;;;;;;6.35;100.00;99562.55;134707;1299;23552;-84
2024/03/01 04:40:28;;;;;;;86.00;45.80;;;;;;;6.26;100.00;99561.66;134741;1294;22328;-85
2024/03/01 04:43:29;;;;;;;86.40;44.50;;;;;;;6.16;100.00;99569.48;134705;1297;22289;-84
2024/03/01 04:46:29;;;;;;;86.50;47.50;;;;;;;6.02;100.00;99570.11;134721;1297;22446;-84
2024/03/01 04:49:30;;;;;;;82.30;46.30;;;;;;;5.93;100.00;99569.13;134698;1294;22347;-86
2024/03/01 04:52:30;;;;;;;82.70;46.00;;;;;;;5.86;100.00;99564.54;134715;1294;22387;-84
2024/03/01 04:55:31;;;;;;;81.10;46.80;;;;;;;5.80;100.00;99559.66;134704;1294;23249;-85
2024/03/01 04:58:31;;;;;;;86.30;47.10;;;;;;;5.71;100.00;99553.46;134696;1301;22379;-85
2024/03/01 05:01:31;;;;;;;93.40;50.80;;;;;;;5.64;100.00;99550.69;134702;1294;22365;-85
2024/03/01 05:04:33;;;;;;;82.40;46.10;;;;;;;5.55;100.00;99553.50;134698;1301;22242;-86
2024/03/01 05:07:34;;;;;;;80.40;45.70;;;;;;;5.51;100.00;99562.42;134695;1294;22237;-84
2024/03/01 05:10:34;;;;;;;;;;;;;;;5.48;100.00;99565.81;134684;1294;22459;-84
2024/03/01 05:13:35;;;;;;;91.50;47.80;;;;;;;5.43;100.00;99567.10;134731;1289;22397;-84
2024/03/01 05:16:37;;;;;;;87.90;46.10;;;;;;;5.40;100.00;99572.64;134641;1294;22993;-83
2024/03/01 05:19:39;;;;;;;86.40;47.10;;;;;;;5.38;100.00;99573.34;134684;1294;22436;-83
2024/03/01 05:22:43;;;;;;;96.90;49.70;;;;;;;5.36;100.00;99576.67;134694;1301;22427;-83
2024/03/01 05:25:51;;;;;;;84.40;45.90;;;;;;;5.36;100.00;99580.19;134673;1288;22518;-82
2024/03/01 05:28:53;;;;;;;85.70;45.80;;;;;;;5.37;100.00;99583.55;134706;1297;22431;-83
2024/03/01 05:31:53;;;;;;;79.10;43.90;;;;;;;5.41;100.00;99586.37;134617;1295;22378;-84
2024/03/01 05:34:54;;;;;;;78.70;45.20;;;;;;;5.46;100.00;99581.75;134671;1294;22447;-83
2024/03/01 05:37:58;;;;;;;77.80;41.30;;;;;;;5.39;100.00;99582.69;134684;1295;22461;-85
2024/03/01 05:40:59;;;;;;;82.80;43.80;;;;;;;5.33;100.00;99580.33;134681;1294;23081;-85
2024/03/01 05:43:59;;;;;;;;;;;;;;;5.31;100.00;99582.43;134691;1294;23331;-82
2024/03/01 05:47:00;;;;;;;85.90;44.50;;;;;;;5.31;100.00;99580.45;134678;1294;22387;-82
2024/03/01 05:50:06;;;;;;;83.10;46.10;;;;;;;5.36;100.00;99584.09;134691;1294;22452;-84
2024/03/01 05:53:13;;;;;;;83.00;44.30;;;;;;;5.41;100.00;99583.77;134542;1301;22484;-85
2024/03/01 05:56:20;;;;;;;88.50;46.60;;;;;;;5.45;100.00;99582.52;134696;1295;22519;-84
2024/03/01 05:59:22;;;;;;;86.20;47.10;;;;;;;5.43;100.00;99586.58;134675;1294;22374;-84
2024/03/01 06:02:24;;;;;;;94.20;46.80;;;;;;;5.47;100.00;99593.63;134531;1298;22433;-84
2024/03/01 06:05:24;;;;;;;84.60;45.60;;;;;;;5.50;100.00;99597.95;134619;1295;23302;-86
2024/03/01 06:08:25;;;;;;;87.30;47.70;;;;;;;5.60;100.00;99609.54;134579;1294;23465;-84
2024/03/01 06:11:28;;;;;;;89.30;48.70;;;;;;;5.71;100.00;99611.11;134642;1295;22477;-85
2024/03/01 06:14:31;;;;;;;76.50;44.30;;;;;;;5.76;100.00;99610.44;134629;1294;22438;-88
2024/03/01 06:17:44;;;;;;;83.90;45.00;;;;;;;5.72;100.00;99607.50;134659;1294;22304;-85
2024/03/01 06:20:48;;;;;;;79.40;42.80;;;;;;;5.69;100.00;99603.36;134328;1294;23327;-85
2024/03/01 06:23:49;;;;;;;86.50;44.20;;;;;;;5.70;100.00;99601.52;134796;1294;22441;-84
2024/03/01 06:26:54;;;;;;;92.10;45.90;;;;;;;5.75;100.00;99604.77;134646;1293;22372;-83
2024/03/01 06:29:55;;;;;;;90.10;48.40;;;;;;;5.81;100.00;99603.95;134871;1293;22395;-83
2024/03/01 06:32:57;;;;;;;82.50;46.20;;;;;;;5.87;100.00;99605.16;134913;1293;23172;-88
2024/03/01 06:35:58;;;;;;;88.10;47.60;;;;;;;5.90;100.00;99602.05;134906;1300;22413;-83
2024/03/01 06:38:59;;;;;;;83.10;45.90;;;;;;;5.94;100.00;99604.33;134895;1292;23535;-83
2024/03/01 06:41:59;;;;;;;81.90;44.90;;;;;;;5.98;100.00;99606.91;134904;1292;22435;-84
2024/03/01 06:45:00;;;;;;;87.10;46.70;;;;;;;6.03;100.00;99606.60;134889;1293;23575;-87
2024/03/01 06:48:00;;;;;;;88.30;47.70;;;;;;;6.08;100.00;99606.81;134572;1298;22360;-87
2024/03/01 06:51:01;;;;;;;96.10;46.60;;;;;;;6.10;100.00;99605.36;134702;1300;23397;-87
2024/03/01 06:54:01;;;;;;;82.60;44.50;;;;;;;6.13;100.00;99603.89;134908;1295;24267;-87
2024/03/01 06:57:05;;;;;;;88.50;47.30;;;;;;;6.13;100.00;99606.00;134881;1292;22395;-89
2024/03/01 07:00:09;;;;;;;84.20;47.30;;;;;;;6.12;100.00;99606.92;134890;1298;22488;-90
2024/03/01 07:03:09;;;;;;;85.00;44.70;;;;;;;6.11;100.00;99599.31;134896;1300;22184;-89
2024/03/01 07:06:11;;;;;;;92.20;49.00;;;;;;;6.10;100.00;99598.73;134890;1300;22542;-88
2024/03/01 07:09:11;;;;;;;92.40;46.90;;;;;;;6.12;100.00;99600.98;134906;1300;22408;-88
2024/03/01 07:12:12;;;;;;;88.80;49.20;;;;;;;6.15;100.00;99602.11;134890;1293;23125;-89
2024/03/01 07:15:13;;;;;;;84.50;48.60;;;;;;;6.19;100.00;99601.19;134877;1292;22417;-89
2024/03/01 07:18:14;;;;;;;91.90;49.20;;;;;;;6.23;100.00;99600.36;134903;1300;22435;-89
2024/03/01 07:21:14;;;;;;;86.70;48.00;;;;;;;6.28;100.00;99598.70;134903;1292;23107;-84
2024/03/01 07:24:15;;;;;;;86.90;47.50;;;;;;;6.34;100.00;99592.92;134895;1293;22427;-88
2024/03/01 07:27:16;;;;;;;89.20;48.50;;;;;;;6.38;100.00;99585.95;134768;1292;22369;-88
2024/03/01 07:30:16;;;;;;;80.50;45.10;;;;;;;6.45;100.00;99576.13;134907;1300;22460;-90
2024/03/01 07:33:17;;;;;;;;;;;;;;;6.53;100.00;99572.83;134898;1300;22549;-89
2024/03/01 07:36:18;;;;;;;92.00;47.70;;;;;;;6.60;100.00;99574.13;134872;1300;22458;-88
2024/03/01 07:39:19;;;;;;;89.30;46.90;;;;;;;6.65;100.00;99570.73;134909;1300;23285;-89
2024/03/01 07:42:19;;;;;;;93.30;47.40;;;;;;;6.72;100.00;99564.73;134916;1298;22285;-88
2024/03/01 07:45:26;;;;;;;81.60;45.90;;;;;;;6.81;100.00;99562.83;134917;1293;22480;-88
2024/03/01 07:48:27;;;;;;;82.00;43.80;;;;;;;6.91;100.00;99561.66;134903;1300;22415;-89
2024/03/01 07:51:27;;;;;;;;;;;;;;;6.99;100.00;99571.15;134881;1300;22459;-88
2024/03/01 07:54:28;;;;;;;85.60;45.70;;;;;;;7.07;100.00;99566.83;134928;1286;23474;-88
2024/03/01 07:57:29;;;;;;;85.30;46.10;;;;;;;7.15;100.00;99565.48;134881;1289;22369;-89
2024/03/01 08:00:30;;;;;;;85.50;46.10;;;;;;;7.23;100.00;99563.98;134873;1299;22509;-89
2024/03/01 08:03:36;;;;;;;87.70;45.30;;;;;;;7.30;100.00;99558.81;134882;1300;22452;-86
2024/03/01 08:06:36;;;;;;;79.50;45.40;;;;;;;7.34;100.00;99552.82;134889;1293;22281;-88
2024/03/01 08:09:40;;;;;;;;;;;;;;;7.45;100.00;99550.38;134930;1300;22423;-89
2024/03/01 08:12:41;;;;;;;81.00;43.90;;;;;;;7.62;100.00;99556.04;134915;1292;23101;-89
2024/03/01 08:15:42;;;;;;;79.00;45.50;;;;;;;7.76;100.00;99553.65;134892;1292;22365;-89
2024/03/01 08:18:43;;;;;;;85.30;45.70;;;;;;;7.89;100.00;99557.91;134920;1285;22398;-89
2024/03/01 08:21:43;;;;;;;;;;;;;;;7.97;100.00;99555.28;134884;1295;22595;-90
2024/03/01 08:24:46;;;;;;;76.80;42.10;;;;;;;8.03;100.00;99553.84;134687;1294;22370;-89
2024/03/01 08:27:47;;;;;;;75.50;43.10;;;;;;;8.07;100.00;99546.96;134678;1301;23419;-88
2024/03/01 08:30:48;;;;;;;78.30;42.90;;;;;;;8.15;100.00;99543.59;134685;1301;22570;-88
2024/03/01 08:34:12;;;;;;;82.90;44.40;;;;;;;8.20;100.00;99545.29;134668;1301;22434;-88
2024/03/01 08:37:22;;;;;;;81.00;45.50;;;;;;;8.24;100.00;99542.86;134542;1301;22451;-89
2024/03/01 08:40:32;;;;;;;73.90;42.70;;;;;;;8.33;100.00;99543.66;134680;1294;22374;-89
2024/03/01 08:43:32;;;;;;;72.00;43.40;;;;;;;8.46;100.00;99544.57;134676;1294;22474;-88
2024/03/01 08:46:33;;;;;;;76.40;45.00;;;;;;;8.58;100.00;99538.90;134696;1295;23348;-89
2024/03/01 08:49:49;;;;;;;74.60;42.70;;;;;;;8.63;100.00;99536.91;134677;1294;22422;-88
2024/03/01 08:52:50;;;;;;;77.90;44.80;;;;;;;8.69;100.00;99531.52;134680;1301;22393;-89
2024/03/01 08:55:51;;;;;;;72.10;41.60;;;;;;;8.75;100.00;99535.47;134704;1297;22366;-88
2024/03/01 08:58:51;;;;;;;73.70;41.90;;;;;;;8.82;100.00;99532.93;134625;1294;23335;-88
2024/03/01 09:01:52;;;;;;;;;;;;;;;8.88;100.00;99532.19;134670;1301;22448;-86
2024/03/01 09:04:53;;;;;;;67.60;40.20;;;;;;;8.97;100.00;99533.67;134642;1301;22554;-86
2024/03/01 09:07:53;;;;;;;68.30;39.60;;;;;;;9.09;100.00;99528.29;134665;1297;22379;-87
2024/03/01 09:10:55;;;;;;;67.90;42.30;;;;;;;9.17;100.00;99528.84;134626;1285;22873;-87
2024/03/01 09:13:55;;;;;;;69.60;40.90;;;;;;;9.26;100.00;99530.86;134652;1295;22427;-87
2024/03/01 09:16:57;;;;;;;67.60;38.10;;;;;;;9.37;100.00;99531.46;134545;1298;22353;-86
2024/03/01 09:20:01;;;;;;;72.90;41.00;;;;;;;9.46;100.00;99533.04;134658;1295;22380;-90
2024/03/01 09:23:05;;;;;;;69.10;38.70;;;;;;;9.50;100.00;99528.62;134655;1297;22386;-86
2024/03/01 09:26:10;;;;;;;62.40;37.30;;;;;;;9.58;100.00;99524.44;134534;1295;23163;-86
2024/03/01 09:29:47;;;;;;;62.10;34.50;;;;;;;9.65;100.00;99522.01;134601;1301;22377;-86
2024/03/01 09:32:47;;;;;;;65.00;36.30;;;;;;;9.71;100.00;99519.20;134526;1295;23128;-86
2024/03/01 09:35:50;;;;;;;58.70;36.60;;;;;;;9.80;100.00;99525.19;134606;1301;22434;-86
2024/03/01 09:38:53;;;;;;;61.30;35.00;;;;;;;9.88;100.00;99527.85;134641;1294;22179;-86
2024/03/01 09:42:26;;;;;;;51.80;32.50;;;;;;;9.93;100.00;99527.98;134640;1298;22370;-86
2024/03/01 09:45:32;;;;;;;63.80;35.40;;;;;;;9.95;100.00;99522.80;134623;1297;23145;-85
2024/03/01 09:48:42;;;;;;;65.10;34.10;;;;;;;10.01;100.00;99522.52;134600;1295;22208;-85
2024/03/01 09:52:05;;;;;;;59.70;34.70;;;;;;;10.06;100.00;99522.05;134640;1301;22528;-85
2024/03/01 09:55:14;;;;;;;56.80;31.80;;;;;;;10.12;100.00;99523.27;134643;1294;22422;-85
2024/03/01 09:58:26;;;;;;;62.60;36.40;;;;;;;10.18;100.00;99520.16;134617;1294;23529;-86
2024/03/01 10:01:31;;;;;;;60.00;34.40;;;;;;;10.22;100.00;99519.47;134440;1296;148177;-85
2024/03/01 10:04:37;;;;;;;60.20;34.80;;;;;;;10.26;99.98;99515.09;134568;1297;23188;-85
2024/03/01 10:08:04;;;;;;;58.00;34.00;;;;;;;10.29;99.44;99515.32;134607;1297;22372;-85
2024/03/01 10:11:05;;;;;;;53.80;31.70;;;;;;;10.33;99.16;99522.66;134608;1298;22363;-86
2024/03/01 10:14:18;;;;;;;50.30;30.00;;;;;;;10.39;99.39;99522.80;134569;1295;23121;-86
2024/03/01 10:17:30;;;;;;;54.30;30.70;;;;;;;10.52;99.72;99525.23;134648;1294;23104;-85
2024/03/01 10:20:38;;;;;;;49.90;30.30;;;;;;;10.67;99.11;99524.36;134594;1295;22463;-86
2024/03/01 10:23:41;;;;;;;52.80;32.10;;;;;;;10.78;98.74;99527.48;134769;1293;22426;-87
2024/03/01 10:26:51;;;;;;;53.90;32.50;;;;;;;10.86;98.35;99528.83;134818;1295;23139;-87
2024/03/01 10:30:11;;;;;;;52.40;32.30;;;;;;;10.93;98.29;99530.94;134829;1293;22266;-86
2024/03/01 10:33:31;;;;;;;54.00;31.70;;;;;;;11.00;97.29;99532.08;134623;1299;22724;-86
2024/03/01 10:36:43;;;;;;;50.40;31.30;;;;;;;11.04;96.76;99530.74;134823;1295;22320;-86
2024/03/01 10:39:44;;;;;;;50.90;31.20;;;;;;;11.07;95.84;99528.52;134646;1301;23059;-83
2024/03/01 10:42:45;;;;;;;;;;;;;;;11.09;95.72;99530.05;134863;1299;22551;-86
2024/03/01 10:46:04;;;;;;;53.70;30.80;;;;;;;11.18;96.68;99524.04;134833;1295;22415;-83
2024/03/01 10:49:17;;;;;;;52.40;32.20;;;;;;;11.34;96.72;99517.86;134840;1298;23138;-83
2024/03/01 10:52:26;;;;;;;50.00;30.40;;;;;;;11.43;95.70;99518.40;134663;1293;22425;-83
2024/03/01 10:55:34;;;;;;;47.30;29.00;;;;;;;11.46;95.23;99521.52;134635;1298;22409;-83
2024/03/01 10:58:44;;;;;;;48.10;27.80;;;;;;;11.49;94.66;99518.20;134652;1298;22216;-83
2024/03/01 11:01:55;;;;;;;;;;;;;;;11.52;94.64;99511.92;134860;1295;23269;-83
2024/03/01 11:05:10;;;;;;;41.50;27.30;;;;;;;11.57;94.28;99506.76;134847;1300;22390;-83
2024/03/01 11:08:38;;;;;;;46.00;29.20;;;;;;;11.61;93.66;99501.77;134843;1298;22382;-83
2024/03/01 11:11:46;;;;;;;43.70;27.10;;;;;;;11.65;93.24;99498.46;134826;1301;22437;-83
2024/03/01 11:15:03;;;;;;;47.20;28.50;;;;;;;11.72;93.27;99500.53;134862;1300;22421;-83
2024/03/01 11:18:10;;;;;;;48.00;26.50;;;;;;;11.81;93.27;99498.80;134802;1301;22397;-84
2024/03/01 11:21:18;;;;;;;45.40;24.00;;;;;;;11.89;92.84;99495.78;134846;1296;22403;-83
2024/03/01 11:24:25;;;;;;;44.60;27.00;;;;;;;11.93;92.19;99490.42;134839;1293;22453;-83
2024/03/01 11:27:29;;;;;;;49.60;27.40;;;;;;;11.96;91.75;99485.34;134853;1298;23149;-84
2024/03/01 11:30:34;;;;;;;50.20;26.60;;;;;;;12.01;91.60;99481.89;134832;1295;22438;-84
2024/03/01 11:33:40;;;;;;;41.70;25.30;;;;;;;12.07;91.22;99481.66;134826;1293;22360;-83
2024/03/01 11:36:46;;;;;;;44.10;25.60;;;;;;;12.14;90.95;99476.48;134869;1300;22266;-84
2024/03/01 11:40:24;;;;;;;36.50;22.90;;;;;;;12.27;90.96;99473.14;134849;1298;22988;-84
2024/03/01 11:43:43;;;;;;;40.30;25.10;;;;;;;12.37;90.02;99474.66;134888;1292;22455;-84
2024/03/01 11:46:59;;;;;;;44.40;24.50;;;;;;;12.49;89.71;99473.34;134881;1300;22447;-84
2024/03/01 11:50:07;;;;;;;38.20;22.40;;;;;;;12.60;89.31;99467.55;134848;1300;22448;-84
2024/03/01 11:53:26;;;;;;;34.90;21.20;;;;;;;12.70;88.45;99460.77;134844;1300;22310;-84
2024/03/01 11:56:48;;;;;;;36.60;21.60;;;;;;;12.83;88.20;99458.75;134844;1298;22382;-84
2024/03/01 12:00:13;;;;;;;38.10;23.50;;;;;;;12.99;88.02;99453.96;134840;1286;22869;-84
2024/03/01 12:03:47;;;;;;;40.30;22.80;;;;;;;13.11;86.97;99455.04;134854;1295;22461;-84
2024/03/01 12:07:04;;;;;;;34.40;21.90;;;;;;;13.24;86.94;99457.87;134897;1300;22505;-84
2024/03/01 12:10:34;;;;;;;35.10;22.50;;;;;;;13.38;86.83;99451.95;134851;1301;22422;-84
2024/03/01 12:13:40;;;;;;;;;;;;;;;13.54;86.85;99443.86;134884;1300;22438;-84
2024/03/01 12:17:06;;;;;;;37.10;19.20;;;;;;;13.68;86.41;99437.56;134894;1300;22398;-84
2024/03/01 12:20:14;;;;;;;33.50;22.20;;;;;;;13.84;86.22;99439.39;134857;1294;22412;-84
2024/03/01 12:23:42;;;;;;;39.60;22.70;;;;;;;13.92;85.53;99431.92;134872;1300;22383;-83
2024/03/01 12:26:55;;;;;;;34.10;22.30;;;;;;;13.96;85.07;99430.48;134895;1300;22406;-84
2024/03/01 12:30:17;;;;;;;32.50;18.80;;;;;;;14.07;84.73;99432.08;134855;1298;22364;-84
2024/03/01 12:33:23;;;;;;;33.70;20.80;;;;;;;14.13;82.17;99433.02;134871;1298;22548;-84
2024/03/01 12:36:36;;;;;;;34.10;21.00;;;;;;;14.22;83.15;99429.20;134848;1300;22262;-84
2024/03/01 12:39:41;;;;;;;35.80;23.50;;;;;;;14.37;83.38;99425.52;134876;1300;23043;-83
2024/03/01 12:43:16;;;;;;;34.70;21.10;;;;;;;14.50;82.74;99423.88;134793;1298;23107;-85
2024/03/01 12:46:47;;;;;;;30.50;17.80;;;;;;;14.61;78.76;99422.88;134858;1296;23098;-84
2024/03/01 12:50:32;;;;;;;25.40;16.20;;;;;;;14.77;79.64;99421.71;134883;1300;22529;-84
2024/03/01 12:54:05;;;;;;;27.20;17.50;;;;;;;14.89;77.84;99413.13;134890;1292;22495;-84
2024/03/01 12:57:38;;;;;;;26.10;16.00;;;;;;;14.96;78.22;99409.80;134860;1300;23137;-85
2024/03/01 13:01:02;;;;;;;26.50;15.80;;;;;;;14.98;75.34;99412.42;134906;1300;22353;-85
2024/03/01 13:04:14;;;;;;;26.60;17.10;;;;;;;14.92;74.15;99411.06;134373;1299;22315;-85
2024/03/01 13:07:17;;;;;;;24.90;15.70;;;;;;;14.91;75.06;99411.43;134912;1300;23436;-84
2024/03/01 13:10:18;;;;;;;25.30;15.80;;;;;;;14.94;75.25;99408.53;134840;1295;22462;-85
2024/03/01 13:13:27;;;;;;;25.70;17.10;;;;;;;14.93;75.42;99409.41;134846;1300;22368;-85
2024/03/01 13:16:28;;;;;;;27.40;16.30;;;;;;;14.97;74.38;99410.29;134827;1298;23193;-84
2024/03/01 13:19:35;;;;;;;24.20;16.10;;;;;;;14.98;73.19;99407.16;134876;1295;22459;-84
2024/03/01 13:22:41;;;;;;;22.90;15.00;;;;;;;15.02;73.96;99412.08;134849;1292;22589;-83
2024/03/01 13:25:59;;;;;;;24.00;13.70;;;;;;;15.14;74.29;99414.61;134660;1294;22573;-84
2024/03/01 13:29:15;;;;;;;22.00;12.80;;;;;;;15.32;72.11;99404.89;134798;1300;22428;-85
2024/03/01 13:32:50;;;;;;;21.40;12.80;;;;;;;15.44;70.35;99394.88;134780;1293;22442;-84
2024/03/01 13:36:02;;;;;;;18.40;11.90;;;;;;;15.56;72.02;99392.23;134776;1298;22480;-84
2024/03/01 13:39:18;;;;;;;19.70;11.00;;;;;;;15.69;71.69;99396.10;134760;1297;22442;-84
2024/03/01 13:42:32;;;;;;;19.00;10.50;;;;;;;15.78;70.83;99393.57;134890;1297;23095;-84
2024/03/01 13:45:42;;;;;;;16.30;10.70;;;;;;;15.79;70.46;99390.06;134819;1296;22476;-84
2024/03/01 13:48:57;;;;;;;16.80;10.90;;;;;;;15.79;69.15;99395.63;134858;1299;23321;-84
2024/03/01 13:52:01;;;;;;;19.60;10.00;;;;;;;15.71;66.29;99398.92;134850;1300;22531;-84
2024/03/01 13:55:02;;;;;;;16.90;11.10;;;;;;;15.62;65.29;99396.21;134646;1296;22481;-84
2024/03/01 13:58:04;;;;;;;20.30;11.30;;;;;;;15.57;64.72;99393.52;134711;1293;22357;-85
2024/03/01 14:01:06;;;;;;;19.10;11.40;;;;;;;15.54;64.46;99389.91;134875;1285;22438;-84
2024/03/01 14:04:06;;;;;;;20.80;11.70;;;;;;;15.50;63.65;99389.46;134844;1299;23201;-84
2024/03/01 14:07:15;;;;;;;;;;;;;;;15.47;63.19;99387.77;134901;1293;22554;-85
2024/03/01 14:10:18;;;;;;;20.00;11.10;;;;;;;15.45;63.98;99389.02;134883;1295;22414;-85